createdAt,value
2022-10-13T00:00:43.485Z,17.44
2022-10-13T00:03:10.639Z,17.31
2022-10-13T00:05:42.255Z,17.20
2022-10-13T00:08:09.306Z,17.31
2022-10-13T00:10:38.091Z,17.16
2022-10-13T00:13:05.671Z,17.17
2022-10-13T00:15:32.405Z,17.11
2022-10-13T00:17:58.948Z,17.28
2022-10-13T00:20:25.470Z,17.63
2022-10-13T00:22:51.954Z,17.98
2022-10-13T00:25:18.411Z,17.92
2022-10-13T00:27:44.846Z,17.44
2022-10-13T00:30:11.684Z,17.29
2022-10-13T00:32:38.230Z,17.16
2022-10-13T00:35:05.141Z,17.37
2022-10-13T00:37:31.621Z,17.49
2022-10-13T00:39:58.075Z,17.32
2022-10-13T00:42:26.378Z,17.25
2022-10-13T00:45:19.760Z,17.19
2022-10-13T00:47:51.682Z,17.15
2022-10-13T00:50:19.944Z,17.14
2022-10-13T00:52:47.781Z,17.19
2022-10-13T00:55:18.101Z,17.21
2022-10-13T00:57:48.351Z,17.17
2022-10-13T01:00:15.143Z,17.19
2022-10-13T01:02:41.776Z,17.15
2022-10-13T01:05:08.890Z,17.20
2022-10-13T01:07:35.884Z,17.19
2022-10-13T01:10:04.001Z,17.14
2022-10-13T01:12:46.533Z,17.09
2022-10-13T01:15:30.092Z,16.99
2022-10-13T01:18:05.779Z,16.95
2022-10-13T01:20:47.452Z,16.87
2022-10-13T01:23:51.573Z,16.97
2022-10-13T01:26:52.511Z,17.00
2022-10-13T01:29:53.213Z,16.90
2022-10-13T01:32:31.783Z,16.99
2022-10-13T01:35:17.259Z,17.03
2022-10-13T01:37:50.999Z,17.01
2022-10-13T01:40:38.454Z,17.00
2022-10-13T01:43:08.384Z,16.99
2022-10-13T01:45:40.746Z,16.92
2022-10-13T01:48:08.833Z,16.84
2022-10-13T01:50:38.150Z,16.90
2022-10-13T01:53:06.103Z,16.89
2022-10-13T01:55:32.579Z,16.94
2022-10-13T01:57:59.164Z,16.92
2022-10-13T02:00:26.267Z,16.89
2022-10-13T02:03:23.828Z,16.85
2022-10-13T02:06:15.712Z,16.88
2022-10-13T02:09:18.572Z,16.87
2022-10-13T02:11:52.024Z,16.85
2022-10-13T02:14:26.498Z,16.88
2022-10-13T02:16:55.457Z,16.81
2022-10-13T02:19:22.950Z,16.82
2022-10-13T02:21:51.480Z,16.84
2022-10-13T02:24:18.199Z,16.91
2022-10-13T02:26:45.483Z,16.85
2022-10-13T02:29:14.410Z,16.84
2022-10-13T02:31:41.865Z,16.81
2022-10-13T02:34:08.747Z,16.76
2022-10-13T02:36:37.793Z,16.78
2022-10-13T02:39:05.286Z,16.77
2022-10-13T02:41:31.798Z,16.85
2022-10-13T02:43:58.250Z,16.79
2022-10-13T02:46:24.866Z,16.82
2022-10-13T02:48:51.410Z,16.73
2022-10-13T02:51:17.955Z,16.64
2022-10-13T02:53:44.547Z,16.64
2022-10-13T02:56:11.004Z,16.65
2022-10-13T02:58:37.490Z,16.58
2022-10-13T03:01:08.894Z,16.64
2022-10-13T03:03:35.992Z,16.63
2022-10-13T03:06:02.787Z,16.64
2022-10-13T03:08:29.681Z,16.59
2022-10-13T03:10:56.141Z,16.65
2022-10-13T03:13:22.697Z,16.67
2022-10-13T03:15:49.333Z,16.64
2022-10-13T03:18:16.343Z,16.61
2022-10-13T03:20:43.050Z,16.61
2022-10-13T03:23:09.503Z,16.62
2022-10-13T03:25:37.414Z,16.63
2022-10-13T03:28:03.917Z,16.59
2022-10-13T03:30:30.415Z,16.57
2022-10-13T03:32:56.842Z,16.53
2022-10-13T03:35:23.358Z,16.53
2022-10-13T03:37:49.813Z,16.49
2022-10-13T03:40:16.401Z,16.50
2022-10-13T03:42:42.931Z,16.58
2022-10-13T03:45:09.979Z,16.47
2022-10-13T03:47:36.877Z,16.48
2022-10-13T03:50:04.771Z,16.46
2022-10-13T03:52:31.314Z,16.38
2022-10-13T03:54:57.847Z,16.45
2022-10-13T03:57:24.422Z,16.47
2022-10-13T03:59:50.909Z,16.46
2022-10-13T04:02:17.579Z,16.43
2022-10-13T04:04:44.379Z,16.42
2022-10-13T04:07:10.831Z,16.47
2022-10-13T04:09:37.654Z,16.33
2022-10-13T04:12:04.471Z,16.26
2022-10-13T04:14:30.943Z,16.26
2022-10-13T04:16:57.487Z,16.25
2022-10-13T04:19:23.982Z,16.32
2022-10-13T04:21:50.461Z,16.31
2022-10-13T04:24:18.266Z,16.37
2022-10-13T04:26:45.041Z,16.47
2022-10-13T04:29:12.111Z,16.38
2022-10-13T04:31:40.588Z,16.28
2022-10-13T04:34:07.852Z,16.28
2022-10-13T04:36:34.337Z,16.23
2022-10-13T04:39:00.839Z,16.25
2022-10-13T04:41:27.339Z,16.22
2022-10-13T04:43:54.355Z,16.44
2022-10-13T04:46:26.463Z,16.60
2022-10-13T04:48:53.301Z,16.55
2022-10-13T04:51:22.506Z,16.80
2022-10-13T04:53:53.757Z,16.63
2022-10-13T04:56:20.286Z,16.52
2022-10-13T04:58:46.829Z,16.37
2022-10-13T05:01:21.531Z,16.26
2022-10-13T05:03:56.448Z,16.20
2022-10-13T05:06:31.735Z,16.13
2022-10-13T05:08:58.937Z,16.17
2022-10-13T05:11:26.828Z,16.19
2022-10-13T05:13:53.947Z,16.13
2022-10-13T05:16:22.246Z,16.28
2022-10-13T05:18:49.860Z,16.30
2022-10-13T05:21:24.902Z,16.30
2022-10-13T05:23:54.344Z,16.57
2022-10-13T05:26:22.674Z,16.20
2022-10-13T05:28:49.419Z,16.08
2022-10-13T05:31:18.917Z,16.17
2022-10-13T05:33:46.844Z,16.02
2022-10-13T05:36:18.693Z,16.02
2022-10-13T05:38:45.402Z,16.01
2022-10-13T05:41:13.967Z,16.04
2022-10-13T05:43:42.075Z,16.04
2022-10-13T05:46:08.649Z,16.03
2022-10-13T05:48:35.663Z,16.07
2022-10-13T05:51:04.922Z,16.04
2022-10-13T05:53:35.732Z,15.97
2022-10-13T05:56:08.731Z,16.02
2022-10-13T05:58:40.724Z,16.04
2022-10-13T06:01:08.485Z,16.03
2022-10-13T06:03:35.829Z,16.09
2022-10-13T06:06:02.503Z,16.24
2022-10-13T06:08:29.796Z,16.21
2022-10-13T06:10:56.615Z,16.13
2022-10-13T06:13:23.099Z,16.08
2022-10-13T06:15:49.591Z,16.04
2022-10-13T06:18:16.086Z,16.05
2022-10-13T06:20:43.632Z,16.08
2022-10-13T06:23:10.170Z,16.15
2022-10-13T06:25:36.864Z,16.23
2022-10-13T06:28:03.525Z,16.24
2022-10-13T06:30:29.995Z,16.29
2022-10-13T06:32:56.555Z,16.40
2022-10-13T06:35:23.657Z,16.43
2022-10-13T06:37:53.098Z,16.45
2022-10-13T06:40:19.689Z,16.52
2022-10-13T06:42:50.035Z,16.58
2022-10-13T06:45:16.859Z,16.63
2022-10-13T06:47:43.426Z,16.77
2022-10-13T06:50:10.007Z,16.97
2022-10-13T06:52:36.480Z,17.13
2022-10-13T06:55:03.160Z,17.35
2022-10-13T06:57:29.703Z,17.63
2022-10-13T06:59:56.247Z,17.87
2022-10-13T07:02:23.068Z,17.93
2022-10-13T07:04:49.895Z,18.15
2022-10-13T07:07:16.414Z,18.52
2022-10-13T07:09:42.896Z,18.98
2022-10-13T07:12:09.484Z,19.35
2022-10-13T07:14:38.181Z,19.09
2022-10-13T07:17:07.518Z,19.21
2022-10-13T07:19:34.174Z,19.64
2022-10-13T07:22:00.643Z,19.96
2022-10-13T07:24:27.573Z,19.77
2022-10-13T07:26:54.046Z,19.97
2022-10-13T07:29:20.578Z,19.44
2022-10-13T07:31:47.431Z,19.65
2022-10-13T07:34:15.512Z,20.05
2022-10-13T07:36:42.428Z,20.17
2022-10-13T07:39:09.811Z,20.33
2022-10-13T07:41:36.951Z,20.14
2022-10-13T07:44:03.596Z,20.07
2022-10-13T07:46:30.095Z,20.30
2022-10-13T07:48:56.713Z,19.83
2022-10-13T07:51:23.281Z,19.87
2022-10-13T07:53:50.684Z,19.86
2022-10-13T07:56:17.345Z,20.12
2022-10-13T07:58:46.435Z,19.99
2022-10-13T08:01:14.149Z,19.58
2022-10-13T08:03:45.602Z,20.07
2022-10-13T08:06:16.923Z,19.69
2022-10-13T08:08:43.494Z,20.18
2022-10-13T08:11:16.479Z,19.93
2022-10-13T08:13:48.071Z,19.95
2022-10-13T08:16:14.599Z,19.76
2022-10-13T08:18:41.099Z,19.87
2022-10-13T08:21:45.847Z,19.67
2022-10-13T08:23:59.356Z,19.49
2022-10-13T08:26:28.547Z,19.38
2022-10-13T08:29:16.658Z,19.23
2022-10-13T08:31:42.542Z,19.43
2022-10-13T08:34:10.365Z,19.89
2022-10-13T08:36:37.787Z,19.77
2022-10-13T08:39:05.118Z,19.57
2022-10-13T08:41:36.452Z,19.53
2022-10-13T08:47:19.286Z,19.46
2022-10-13T08:49:46.322Z,19.45
2022-10-13T08:52:23.027Z,19.76
2022-10-13T08:54:50.176Z,19.72
2022-10-13T08:57:17.549Z,19.70
2022-10-13T08:59:44.385Z,19.63
2022-10-13T09:02:29.083Z,19.93
2022-10-13T09:04:59.928Z,20.06
2022-10-13T09:07:31.541Z,19.88
2022-10-13T09:09:58.225Z,19.58
2022-10-13T09:12:25.826Z,19.60
2022-10-13T09:15:10.841Z,19.52
2022-10-13T09:17:40.136Z,19.71
2022-10-13T09:20:27.579Z,19.77
2022-10-13T09:23:19.418Z,19.72
2022-10-13T09:25:51.569Z,19.72
2022-10-13T09:28:30.022Z,19.92
2022-10-13T09:31:24.306Z,19.97
2022-10-13T09:34:22.531Z,19.79
2022-10-13T09:36:55.891Z,19.84
2022-10-13T09:39:22.751Z,20.10
2022-10-13T09:41:49.215Z,20.14
2022-10-13T09:44:28.846Z,20.03
2022-10-13T09:47:01.347Z,20.03
2022-10-13T09:49:39.638Z,20.07
2022-10-13T09:52:14.414Z,19.96
2022-10-13T09:54:41.017Z,20.18
2022-10-13T09:57:26.558Z,20.08
2022-10-13T10:00:04.368Z,20.05
2022-10-13T10:02:49.523Z,20.03
2022-10-13T10:05:27.539Z,20.17
2022-10-13T10:07:58.870Z,20.21
2022-10-13T10:10:33.943Z,20.24
2022-10-13T10:13:02.131Z,20.19
2022-10-13T10:15:38.798Z,20.27
2022-10-13T10:18:16.758Z,20.40
2022-10-13T10:21:07.896Z,20.30
2022-10-13T10:23:42.546Z,20.36
2022-10-13T10:26:18.197Z,20.79
2022-10-13T10:28:55.514Z,20.50
2022-10-13T10:31:55.669Z,20.29
2022-10-13T10:34:35.073Z,20.31
2022-10-13T10:37:21.427Z,20.34
2022-10-13T10:40:02.219Z,20.41
2022-10-13T10:42:47.287Z,20.58
2022-10-13T10:45:20.445Z,20.73
2022-10-13T10:47:51.528Z,20.81
2022-10-13T10:50:19.028Z,20.67
2022-10-13T10:52:55.339Z,20.83
2022-10-13T10:55:41.095Z,20.73
2022-10-13T10:58:22.481Z,20.65
2022-10-13T11:01:12.243Z,20.67
2022-10-13T11:03:46.721Z,20.66
2022-10-13T11:06:13.133Z,20.60
2022-10-13T11:08:42.388Z,20.60
2022-10-13T11:11:25.065Z,20.95
2022-10-13T11:13:56.401Z,20.85
2022-10-13T11:16:33.351Z,20.90
2022-10-13T11:19:07.866Z,20.73
2022-10-13T11:21:52.805Z,20.76
2022-10-13T11:24:39.283Z,20.97
2022-10-13T11:27:11.692Z,21.00
2022-10-13T11:29:44.485Z,21.34
2022-10-13T11:32:26.379Z,21.44
2022-10-13T11:35:17.583Z,21.58
2022-10-13T11:38:06.798Z,21.37
2022-10-13T11:40:37.955Z,21.46
2022-10-13T11:43:13.121Z,21.51
2022-10-13T11:46:01.673Z,21.73
2022-10-13T11:48:34.051Z,21.64
2022-10-13T11:51:03.771Z,21.48
2022-10-13T11:53:44.510Z,21.45
2022-10-13T11:56:46.122Z,21.44
2022-10-13T11:59:33.698Z,21.85
2022-10-13T12:02:12.269Z,21.60
2022-10-13T12:04:46.342Z,21.45
2022-10-13T12:07:15.922Z,21.53
2022-10-13T12:09:57.426Z,21.68
2022-10-13T12:12:25.305Z,21.70
2022-10-13T12:14:54.997Z,21.92
2022-10-13T12:17:31.355Z,21.76
2022-10-13T12:20:03.610Z,21.81
2022-10-13T12:22:30.595Z,21.99
2022-10-13T12:25:06.320Z,21.93
2022-10-13T12:27:44.686Z,21.89
2022-10-13T12:30:30.942Z,21.68
2022-10-13T12:33:00.012Z,21.92
2022-10-13T12:35:33.760Z,21.81
2022-10-13T12:38:13.099Z,21.73
2022-10-13T12:40:40.011Z,21.92
2022-10-13T12:43:06.719Z,21.78
2022-10-13T12:45:35.240Z,21.90
2022-10-13T12:48:01.809Z,21.74
2022-10-13T12:50:28.255Z,21.57
2022-10-13T12:53:15.452Z,21.70
2022-10-13T12:55:59.056Z,21.59
2022-10-13T12:58:31.591Z,21.46
2022-10-13T13:01:03.957Z,21.34
2022-10-13T13:03:30.700Z,21.32
2022-10-13T13:06:14.405Z,21.72
2022-10-13T13:08:43.228Z,21.83
2022-10-13T13:11:35.857Z,21.68
2022-10-13T13:14:36.759Z,21.51
2022-10-13T13:17:38.559Z,21.48
2022-10-13T13:20:29.214Z,21.57
2022-10-13T13:22:56.010Z,21.64
2022-10-13T13:25:23.355Z,21.85
2022-10-13T13:27:50.872Z,21.77
2022-10-13T13:30:20.057Z,21.58
2022-10-13T13:32:46.737Z,21.44
2022-10-13T13:35:13.428Z,21.36
2022-10-13T13:37:44.405Z,21.50
2022-10-13T13:40:16.479Z,21.63
2022-10-13T13:42:42.963Z,21.72
2022-10-13T13:45:13.458Z,21.59
2022-10-13T13:47:40.004Z,21.51
2022-10-13T13:50:17.122Z,21.42
2022-10-13T13:52:43.698Z,21.65
2022-10-13T13:55:10.292Z,21.48
2022-10-13T13:57:36.871Z,21.38
2022-10-13T14:00:04.871Z,21.49
2022-10-13T14:02:31.432Z,21.62
2022-10-13T14:04:58.316Z,21.48
2022-10-13T14:07:24.820Z,21.34
2022-10-13T14:09:51.462Z,21.29
2022-10-13T14:12:18.291Z,21.81
2022-10-13T14:14:45.105Z,21.81
2022-10-13T14:17:11.564Z,21.73
2022-10-13T14:19:38.096Z,21.90
2022-10-13T14:22:09.180Z,22.01
2022-10-13T14:24:36.066Z,21.92
2022-10-13T14:27:02.591Z,21.88
2022-10-13T14:29:29.546Z,21.75
2022-10-13T14:31:56.237Z,21.75
2022-10-13T14:34:22.886Z,21.59
2022-10-13T14:36:49.348Z,21.46
2022-10-13T14:39:15.915Z,21.54
2022-10-13T14:41:42.422Z,21.49
2022-10-13T14:44:11.858Z,21.48
2022-10-13T14:46:38.440Z,21.29
2022-10-13T14:49:04.992Z,21.18
2022-10-13T14:51:32.430Z,21.29
2022-10-13T14:54:01.639Z,21.12
2022-10-13T14:56:32.453Z,21.04
2022-10-13T14:59:04.327Z,21.06
2022-10-13T15:01:31.292Z,21.13
2022-10-13T15:03:57.811Z,21.07
2022-10-13T15:06:26.235Z,21.02
2022-10-13T15:08:53.353Z,21.30
2022-10-13T15:11:21.682Z,21.38
2022-10-13T15:13:48.198Z,21.27
2022-10-13T15:16:23.548Z,21.14
2022-10-13T15:18:50.784Z,21.04
2022-10-13T15:21:18.090Z,20.88
2022-10-13T15:23:45.275Z,20.81
2022-10-13T15:26:13.826Z,20.77
2022-10-13T15:28:42.494Z,20.72
2022-10-13T15:31:09.008Z,20.65
2022-10-13T15:33:35.527Z,20.62
2022-10-13T15:36:02.307Z,20.61
2022-10-13T15:38:28.980Z,20.59
2022-10-13T15:41:03.253Z,20.55
2022-10-13T15:43:29.890Z,20.61
2022-10-13T15:46:00.376Z,20.71
2022-10-13T15:48:27.671Z,20.75
2022-10-13T15:50:54.160Z,20.91
2022-10-13T15:53:20.739Z,20.88
2022-10-13T15:55:48.154Z,20.83
2022-10-13T15:58:15.579Z,20.89
2022-10-13T16:00:42.937Z,20.85
2022-10-13T16:03:18.030Z,20.86
2022-10-13T16:05:46.038Z,20.87
2022-10-13T16:08:14.047Z,20.79
2022-10-13T16:10:42.074Z,20.76
2022-10-13T16:13:12.407Z,20.71
2022-10-13T16:15:38.926Z,20.55
2022-10-13T16:18:05.706Z,20.57
2022-10-13T16:20:35.053Z,20.55
2022-10-13T16:23:01.881Z,20.51
2022-10-13T16:25:29.356Z,20.65
2022-10-13T16:27:56.174Z,20.60
2022-10-13T16:30:22.712Z,20.43
2022-10-13T16:32:49.419Z,20.39
2022-10-13T16:35:16.133Z,20.28
2022-10-13T16:37:42.613Z,20.30
2022-10-13T16:40:09.542Z,20.36
2022-10-13T16:42:36.035Z,20.29
2022-10-13T16:45:02.510Z,20.33
2022-10-13T16:47:29.465Z,20.27
2022-10-13T16:49:55.931Z,20.16
2022-10-13T16:52:22.519Z,20.07
2022-10-13T16:54:48.992Z,20.06
2022-10-13T16:57:15.514Z,20.07
2022-10-13T16:59:42.014Z,20.06
2022-10-13T17:02:14.437Z,19.90
2022-10-13T17:04:41.433Z,19.84
2022-10-13T17:07:07.982Z,19.87
2022-10-13T17:09:34.441Z,19.97
2022-10-13T17:12:01.263Z,19.99
2022-10-13T17:14:27.778Z,19.93
2022-10-13T17:16:57.558Z,19.93
2022-10-13T17:19:24.399Z,20.11
2022-10-13T17:21:50.866Z,19.85
2022-10-13T17:24:17.420Z,19.89
2022-10-13T17:26:43.841Z,19.94
2022-10-13T17:29:10.656Z,19.85
2022-10-13T17:31:37.148Z,19.83
2022-10-13T17:34:03.587Z,19.72
2022-10-13T17:36:32.249Z,19.63
2022-10-13T17:39:06.856Z,19.51
2022-10-13T17:41:33.770Z,19.59
2022-10-13T17:44:00.287Z,19.73
2022-10-13T17:46:38.349Z,19.61
2022-10-13T17:49:07.280Z,19.58
2022-10-13T17:51:34.332Z,19.52
2022-10-13T17:54:01.303Z,19.47
2022-10-13T17:56:28.977Z,19.29
2022-10-13T17:58:55.822Z,19.17
2022-10-13T18:01:27.867Z,19.10
2022-10-13T18:03:59.825Z,19.01
2022-10-13T18:06:31.461Z,18.95
2022-10-13T18:09:04.735Z,18.91
2022-10-13T18:11:31.399Z,18.90
2022-10-13T18:13:58.771Z,18.86
2022-10-13T18:16:25.292Z,18.82
2022-10-13T18:18:53.754Z,18.75
2022-10-13T18:21:23.197Z,18.75
2022-10-13T18:23:49.946Z,18.70
2022-10-13T18:26:19.984Z,18.69
2022-10-13T18:28:48.488Z,18.69
2022-10-13T18:31:18.695Z,18.64
2022-10-13T18:33:45.601Z,18.59
2022-10-13T18:36:15.519Z,18.57
2022-10-13T18:38:42.455Z,18.59
2022-10-13T18:41:09.026Z,18.74
2022-10-13T18:43:35.488Z,18.83
2022-10-13T18:46:02.915Z,18.87
2022-10-13T18:48:29.531Z,18.98
2022-10-13T18:50:56.213Z,19.11
2022-10-13T18:53:22.947Z,19.29
2022-10-13T18:55:49.511Z,19.29
2022-10-13T18:58:16.075Z,19.13
2022-10-13T19:00:42.658Z,19.05
2022-10-13T19:03:09.549Z,18.97
2022-10-13T19:05:39.566Z,19.09
2022-10-13T19:08:09.388Z,19.42
2022-10-13T19:10:36.424Z,19.32
2022-10-13T19:13:03.203Z,19.13
2022-10-13T19:15:29.659Z,18.91
2022-10-13T19:17:56.134Z,18.86
2022-10-13T19:20:22.871Z,18.72
2022-10-13T19:22:49.326Z,18.68
2022-10-13T19:25:16.398Z,18.75
2022-10-13T19:27:43.048Z,18.74
2022-10-13T19:30:10.363Z,18.78
2022-10-13T19:32:39.578Z,18.67
2022-10-13T19:35:06.779Z,18.60
2022-10-13T19:37:33.417Z,19.01
2022-10-13T19:39:59.968Z,18.62
2022-10-13T19:42:27.069Z,18.57
2022-10-13T19:44:54.162Z,18.58
2022-10-13T19:47:21.451Z,18.97
2022-10-13T19:49:48.261Z,18.65
2022-10-13T19:52:15.312Z,18.77
2022-10-13T19:54:42.247Z,18.76
2022-10-13T19:57:09.220Z,18.58
2022-10-13T19:59:36.879Z,18.41
2022-10-13T20:02:04.452Z,18.24
2022-10-13T20:04:31.270Z,18.19
2022-10-13T20:06:57.717Z,18.41
2022-10-13T20:09:24.211Z,18.51
2022-10-13T20:11:51.942Z,18.47
2022-10-13T20:14:18.966Z,18.57
2022-10-13T20:16:45.894Z,18.23
2022-10-13T20:19:14.703Z,18.12
2022-10-13T20:21:41.278Z,18.01
2022-10-13T20:24:07.864Z,18.13
2022-10-13T20:26:34.535Z,18.32
2022-10-13T20:29:01.207Z,18.21
2022-10-13T20:31:27.988Z,18.14
2022-10-13T20:33:56.226Z,18.23
2022-10-13T20:36:24.100Z,18.20
2022-10-13T20:38:51.070Z,18.13
2022-10-13T20:41:21.679Z,18.05
2022-10-13T20:43:49.192Z,17.98
2022-10-13T20:46:17.478Z,18.19
2022-10-13T20:49:09.887Z,18.17
2022-10-13T20:51:31.028Z,18.20
2022-10-13T20:53:57.730Z,18.12
2022-10-13T20:56:26.289Z,18.20
2022-10-13T20:58:53.217Z,18.27
2022-10-13T21:01:21.680Z,18.08
2022-10-13T21:03:55.398Z,18.13
2022-10-13T21:06:23.856Z,18.07
2022-10-13T21:08:50.827Z,18.03
2022-10-13T21:11:20.116Z,18.08
2022-10-13T21:13:47.520Z,17.97
2022-10-13T21:16:19.832Z,18.03
2022-10-13T21:18:51.422Z,18.01
2022-10-13T21:21:22.286Z,18.04
2022-10-13T21:23:53.573Z,18.00
2022-10-13T21:26:22.412Z,17.89
2022-10-13T21:28:50.238Z,18.28
2022-10-13T21:31:18.384Z,18.32
2022-10-13T21:33:45.892Z,18.22
2022-10-13T21:36:16.380Z,18.06
2022-10-13T21:38:44.281Z,18.14
2022-10-13T21:41:12.749Z,18.00
2022-10-13T21:43:39.401Z,18.02
2022-10-13T21:46:16.506Z,17.85
2022-10-13T21:48:44.343Z,17.70
2022-10-13T21:51:22.526Z,17.74
2022-10-13T21:54:00.633Z,17.75
2022-10-13T21:56:28.110Z,17.74
2022-10-13T21:58:56.037Z,17.69
2022-10-13T22:01:23.867Z,17.69
2022-10-13T22:03:55.145Z,17.69
2022-10-13T22:06:21.997Z,17.83
2022-10-13T22:08:50.945Z,17.77
2022-10-13T22:11:18.434Z,17.59
2022-10-13T22:13:45.320Z,17.54
2022-10-13T22:16:20.754Z,17.59
2022-10-13T22:18:47.775Z,17.58
2022-10-13T22:21:17.399Z,17.58
2022-10-13T22:23:45.202Z,17.62
2022-10-13T22:26:13.612Z,17.83
2022-10-13T22:28:40.482Z,17.72
2022-10-13T22:31:08.786Z,17.69
2022-10-13T22:33:37.448Z,17.63
2022-10-13T22:36:24.640Z,17.63
2022-10-13T22:38:52.982Z,17.53
2022-10-13T22:41:20.029Z,17.48
2022-10-13T22:43:54.306Z,17.52
2022-10-13T22:46:23.655Z,17.51
2022-10-13T22:48:50.746Z,17.43
2022-10-13T22:51:20.210Z,17.38
2022-10-13T22:53:47.762Z,17.54
2022-10-13T22:56:17.395Z,17.49
2022-10-13T22:58:44.227Z,17.46
2022-10-13T23:01:13.947Z,17.36
2022-10-13T23:03:40.865Z,17.47
2022-10-13T23:06:12.300Z,17.45
2022-10-13T23:08:39.101Z,17.51
2022-10-13T23:11:05.685Z,17.46
2022-10-13T23:13:32.438Z,17.46
2022-10-13T23:16:03.592Z,17.43
2022-10-13T23:18:30.343Z,17.34
2022-10-13T23:20:57.191Z,17.40
2022-10-13T23:23:23.847Z,17.22
2022-10-13T23:25:50.410Z,17.14
2022-10-13T23:28:18.144Z,17.35
2022-10-13T23:30:44.600Z,17.14
2022-10-13T23:33:11.064Z,17.33
2022-10-13T23:35:37.546Z,17.22
2022-10-13T23:38:04.094Z,17.12
2022-10-13T23:40:30.621Z,17.20
2022-10-13T23:42:57.100Z,17.13
2022-10-13T23:45:23.536Z,17.20
2022-10-13T23:47:49.977Z,17.15
2022-10-13T23:50:16.518Z,17.17
2022-10-13T23:52:43.033Z,17.15
2022-10-13T23:55:09.578Z,17.07
2022-10-13T23:57:36.104Z,16.98
